AirNav   TITAN Aviation Fuels
 
 700 users online  

09ME Perrotti Skyranch Airfield
Berwick, Maine, USA

GOING TO BERWICK?


FAA INFORMATION EFFECTIVE 02 DECEMBER 2021

Location

FAA Identifier: 09ME
Lat/Long: 43-20-27.0000N 070-51-17.0000W
43-20.450000N 070-51.283333W
43.3408333,-70.8547222
(estimated)
Elevation: 260 ft. / 79 m (estimated)
From city: 6 miles E of BERWICK, ME
Time zone: UTC -5 (UTC -4 during Daylight Saving Time)
Zip code: 03901

Airport Operations

Airport use: Private use. Permission required prior to landing
Activation date: 04/2003
Control tower: no
ARTCC: BOSTON CENTER
FSS: BANGOR FLIGHT SERVICE STATION
Attendance: UNATNDD
Wind indicator: yes
Segmented circle: no

Airport Communications

WX ASOS at DAW (5 nm SW): 135.275 (603-332-7814)
WX AWOS-3PT at SFM (7 nm NE): 120.025 (207-324-1958)

Nearby radio navigation aids

VOR radial/distance  VOR name  Freq  Var
ENEr261/11.7KENNEBUNK VOR/DME117.1017W
CONr092/32.3CONCORD VOR/DME112.9015W
MHTr054/36.2MANCHESTER VOR/DME114.4015W

 
NDB name  Hdg/Dist  Freq  Var  ID
ROLLINS007/7.326016WESG . ... --.

Airport Services

Runway Information

Runway 4/22

Dimensions: 2000 x 100 ft. / 610 x 30 m
Surface: turf
RUNWAY 4  RUNWAY 22
Traffic pattern: leftleft
Obstructions: none25 ft. trees, 20 ft. from runway

Airport Ownership and Management from official FAA records

Ownership: Privately-owned
Owner: JAMES PERROTTI
P. O. BOX 33
BERWICK, ME 03901
Phone 603-781-8887
Manager: JAMES PERROTTI
P. O. BOX 33
BERWICK, ME 03901
Phone 603-781-8887

Airport Operational Statistics

Aircraft based on the field: 3
Single engine airplanes: 3
    

Additional Remarks

AVOID RESIDENTIAL AREAS ESE OF RY.
FOR CD CTC BOSTON APCH AT 603-594-5551.

Instrument Procedures

There are no published instrument procedures at 09ME.

Some nearby airports with instrument procedures:

KDAW - Skyhaven Airport (5 nm SW)
KSFM - Sanford Seacoast Regional Airport (7 nm NE)
3B4 - Littlebrook Air Park (12 nm S)
KPSM - Portsmouth International Airport at Pease (16 nm S)
B19 - Biddeford Municipal Airport (18 nm NE)
 
Loc | Ops | Rwys | IFR | FBO | Links
Com | Nav | Svcs | Stats | Notes
Area around 09ME (Perrotti Skyranch Airfield)
 
Road maps at: MapQuest Bing Google
 
Aerial photo
No photo
 
Sectional chart

 
Airport distance calculator
Flying to Perrotti Skyranch Airfield? Find the distance to fly.

From to 09ME

Sunrise and sunset
Times for 07-Dec-2021
 Local
(UTC-5)
 Zulu
(UTC)
Morning civil twilight06:3111:31
Sunrise07:0312:03
Sunset16:0721:07
Evening civil twilight16:3921:39

Current date and time
Zulu (UTC)  07-Dec-2021 05:26:18
Local (UTC-5)  07-Dec-2021 00:26:18
 
METAR
KDAW 
4nm SW 
070451Z AUTO 27010G21KT 220V300 10SM OVC065 07/M01 A2961 RMK AO2 RAB03E20 SLP027 P0000 T00671006 401330006 TSNO
KSFM 
7nm NE 
070456Z AUTO 26011G17KT 10SM SCT032 BKN041 OVC060 07/03 A2960 RMK AO2 RAE47 SLP029 P0000 T00670033
KPSM 
17nm S 
070456Z 27021G31KT 10SM -RA SCT029 OVC080 07/M01 A2962 RMK AO2A PK WND 26031/51 SLP033 P0001 T00651009 401560063
TAF
KPSM 
17nm S 
070313Z 0703/0724 29020G37KT 5SM -SHRA BR OVC025 WS020/20045KT FM070500 26015G25KT 6SM BR OVC035 FM071300 27012G21KT P6SM FEW250
NOTAMs
Click for the latest NOTAMs
NOTAMs are issued by the DoD/FAA and will open in a separate window not controlled by AirNav.

 

 
 

Would you like to see your business listed on this page?

 If your business provides an interesting product or service to pilots, flight crews, aircraft, or users of the Perrotti Skyranch Airfield, you should consider listing it here.  To start the listing process, click on the button below
 
Add a business
 

Other Pages about Perrotti Skyranch Airfield

Update a link
 
Copyright © AirNav, LLC. All rights reserved. Privacy Policy  Contact